createdAt,value
2022-11-08T00:00:44.190Z,46.42
2022-11-08T00:01:44.190Z,46.43
2022-11-08T00:02:44.176Z,46.41
2022-11-08T00:03:44.189Z,46.35
2022-11-08T00:04:44.190Z,46.4
2022-11-08T00:05:44.190Z,46.39
2022-11-08T00:06:44.176Z,46.28
2022-11-08T00:07:44.191Z,46.22
2022-11-08T00:08:44.191Z,46.2
2022-11-08T00:09:44.191Z,46.37
2022-11-08T00:10:44.177Z,46.33
2022-11-08T00:11:44.191Z,46.42
2022-11-08T00:12:44.193Z,46.43
2022-11-08T00:13:44.177Z,46.37
2022-11-08T00:14:44.177Z,46.38
2022-11-08T00:15:44.192Z,46.34
2022-11-08T00:16:44.192Z,46.34
2022-11-08T00:17:44.178Z,46.27
2022-11-08T00:18:44.178Z,46.29
2022-11-08T00:19:44.193Z,46.27
2022-11-08T00:20:44.217Z,46.12
2022-11-08T00:21:44.178Z,46.22
2022-11-08T00:22:44.193Z,46.12
2022-11-08T00:23:44.193Z,46.08
2022-11-08T00:24:44.193Z,46.08
2022-11-08T00:25:44.179Z,45.97
2022-11-08T00:26:44.194Z,45.94
2022-11-08T00:27:44.193Z,46.06
2022-11-08T00:29:01.686Z,45.98
2022-11-08T00:29:44.180Z,46.05
2022-11-08T00:30:44.195Z,46.1
2022-11-08T00:31:44.196Z,46.08
2022-11-08T00:32:44.195Z,46.14
2022-11-08T00:33:44.180Z,46.03
2022-11-08T00:34:44.195Z,46.09
2022-11-08T00:35:44.195Z,45.83
2022-11-08T00:36:44.196Z,46.1
2022-11-08T00:37:44.181Z,46.19
2022-11-08T00:38:52.430Z,46.31
2022-11-08T00:39:44.197Z,46.27
2022-11-08T00:40:44.182Z,46.25
2022-11-08T00:41:44.182Z,46.19
2022-11-08T00:42:44.197Z,45.98
2022-11-08T00:43:44.197Z,46.06
2022-11-08T00:44:44.182Z,46.12
2022-11-08T00:45:44.182Z,46.07
2022-11-08T00:46:44.197Z,46.29
2022-11-08T00:47:44.261Z,46.18
2022-11-08T00:48:44.183Z,45.99
2022-11-08T00:49:44.198Z,45.91
2022-11-08T00:50:44.198Z,46.02
2022-11-08T00:51:44.197Z,46
2022-11-08T00:52:44.183Z,46.03
2022-11-08T00:53:44.198Z,46
2022-11-08T00:55:44.199Z,45.89
2022-11-08T00:56:44.185Z,45.85
2022-11-08T00:57:44.198Z,45.9
2022-11-08T00:58:44.200Z,45.75
2022-11-08T00:59:44.199Z,45.82
2022-11-08T01:00:44.185Z,45.76
2022-11-08T01:01:44.240Z,45.85
2022-11-08T01:02:44.201Z,45.69
2022-11-08T01:03:44.185Z,45.97
2022-11-08T01:04:44.185Z,45.89
2022-11-08T01:05:44.200Z,45.98
2022-11-08T01:06:44.201Z,46.11
2022-11-08T01:07:44.186Z,45.94
2022-11-08T01:08:44.201Z,45.92
2022-11-08T01:09:44.200Z,45.9
2022-11-08T01:10:44.200Z,45.86
2022-11-08T01:11:44.187Z,45.88
2022-11-08T01:12:44.201Z,45.91
2022-11-08T01:13:44.201Z,45.76
2022-11-08T01:14:44.201Z,45.85
2022-11-08T01:15:44.187Z,45.84
2022-11-08T01:16:44.202Z,45.86
2022-11-08T01:17:44.203Z,45.82
2022-11-08T01:18:44.202Z,45.99
2022-11-08T01:19:44.188Z,45.86
2022-11-08T01:20:44.201Z,45.93
2022-11-08T01:21:44.203Z,45.87
2022-11-08T01:22:44.188Z,45.89
2022-11-08T01:23:44.188Z,46.05
2022-11-08T01:24:44.203Z,46.28
2022-11-08T01:25:44.203Z,46.07
2022-11-08T01:26:44.189Z,46.05
2022-11-08T01:27:44.190Z,46.02
2022-11-08T01:28:44.204Z,45.88
2022-11-08T01:29:44.203Z,45.91
2022-11-08T01:30:44.189Z,45.88
2022-11-08T01:31:44.203Z,45.88
2022-11-08T01:32:44.204Z,45.89
2022-11-08T01:33:44.204Z,45.74
2022-11-08T01:34:44.190Z,45.87
2022-11-08T01:35:44.204Z,45.96
2022-11-08T01:36:44.256Z,45.79
2022-11-08T01:37:44.204Z,45.75
2022-11-08T01:38:44.190Z,45.98
2022-11-08T01:39:44.205Z,45.95
2022-11-08T01:40:44.206Z,45.87
2022-11-08T01:41:44.205Z,46.03
2022-11-08T01:42:44.191Z,46.04
2022-11-08T01:43:44.206Z,46.12
2022-11-08T01:44:44.206Z,46.09
2022-11-08T01:45:44.191Z,46.08
2022-11-08T01:46:44.192Z,46.09
2022-11-08T01:47:44.206Z,45.96
2022-11-08T01:48:44.208Z,45.94
2022-11-08T01:49:44.192Z,46.16
2022-11-08T01:50:44.192Z,46.04
2022-11-08T01:51:44.207Z,46.05
2022-11-08T01:52:44.207Z,46.04
2022-11-08T01:53:44.193Z,45.99
2022-11-08T01:54:44.207Z,46.01
2022-11-08T01:55:44.208Z,45.83
2022-11-08T01:56:44.207Z,45.88
2022-11-08T01:57:44.193Z,45.89
2022-11-08T01:58:44.208Z,45.73
2022-11-08T01:59:44.207Z,45.9
2022-11-08T02:00:44.208Z,45.91
2022-11-08T02:01:44.194Z,45.85
2022-11-08T02:02:44.209Z,45.84
2022-11-08T02:03:44.210Z,45.98
2022-11-08T02:04:44.209Z,45.9
2022-11-08T02:05:53.452Z,45.74
2022-11-08T02:06:44.209Z,45.68
2022-11-08T02:07:44.210Z,45.79
2022-11-08T02:08:44.209Z,45.8
2022-11-08T02:09:44.195Z,46.03
2022-11-08T02:10:44.209Z,46.17
2022-11-08T02:11:44.211Z,46.19
2022-11-08T02:12:44.195Z,46.26
2022-11-08T02:13:44.197Z,46.02
2022-11-08T02:14:44.209Z,45.88
2022-11-08T02:15:44.210Z,45.85
2022-11-08T02:16:44.196Z,45.79
2022-11-08T02:17:44.251Z,45.82
2022-11-08T02:18:44.211Z,45.5
2022-11-08T02:19:44.211Z,45.59
2022-11-08T02:20:44.196Z,45.66
2022-11-08T02:21:44.211Z,45.52
2022-11-08T02:22:44.211Z,45.63
2022-11-08T02:23:44.212Z,45.53
2022-11-08T02:24:44.197Z,45.56
2022-11-08T02:25:44.211Z,45.47
2022-11-08T02:26:44.212Z,45.55
2022-11-08T02:27:44.212Z,45.71
2022-11-08T02:28:44.198Z,45.48
2022-11-08T02:29:44.212Z,45.66
2022-11-08T02:30:44.213Z,45.32
2022-11-08T02:31:44.198Z,45.29
2022-11-08T02:32:44.198Z,45.29
2022-11-08T02:33:44.212Z,45.18
2022-11-08T02:34:44.213Z,45.27
2022-11-08T02:35:44.199Z,45.19
2022-11-08T02:36:44.200Z,45.15
2022-11-08T02:37:44.213Z,44.94
2022-11-08T02:38:44.222Z,45.42
2022-11-08T02:39:44.199Z,45.16
2022-11-08T02:40:44.214Z,45.15
2022-11-08T02:41:44.214Z,44.99
2022-11-08T02:42:44.214Z,45.13
2022-11-08T02:43:44.200Z,45.1
2022-11-08T02:44:44.215Z,45.17
2022-11-08T02:45:44.238Z,44.99
2022-11-08T02:46:44.215Z,45.15
2022-11-08T02:47:44.200Z,45.31
2022-11-08T02:48:44.214Z,45.43
2022-11-08T02:49:44.216Z,45.54
2022-11-08T02:50:44.215Z,45.29
2022-11-08T02:51:44.201Z,45.41
2022-11-08T02:52:44.239Z,45.53
2022-11-08T02:53:44.217Z,45.55
2022-11-08T02:54:44.201Z,45.39
2022-11-08T02:55:44.202Z,45.52
2022-11-08T02:56:44.216Z,45.62
2022-11-08T02:57:44.217Z,45.59
2022-11-08T02:58:44.202Z,45.54
2022-11-08T02:59:44.202Z,45.49
2022-11-08T03:00:44.217Z,45.57
2022-11-08T03:01:44.216Z,45.62
2022-11-08T03:02:44.202Z,45.49
2022-11-08T03:03:44.217Z,45.5
2022-11-08T03:04:44.217Z,45.26
2022-11-08T03:05:44.217Z,45.4
2022-11-08T03:06:44.203Z,45.55
2022-11-08T03:07:44.218Z,45.67
2022-11-08T03:08:44.269Z,45.5
2022-11-08T03:09:44.218Z,45.4
2022-11-08T03:10:44.204Z,45.52
2022-11-08T03:11:44.218Z,45.52
2022-11-08T03:12:44.220Z,45.71
2022-11-08T03:13:44.219Z,45.5
2022-11-08T03:14:44.204Z,45.38
2022-11-08T03:15:44.266Z,45.24
2022-11-08T03:16:44.220Z,45.45
2022-11-08T03:17:44.205Z,45.36
2022-11-08T03:18:44.205Z,45.36
2022-11-08T03:19:44.220Z,45.51
2022-11-08T03:20:44.221Z,45.48
2022-11-08T03:21:44.205Z,45.51
2022-11-08T03:22:44.220Z,45.43
2022-11-08T03:23:44.220Z,45.77
2022-11-08T03:24:44.219Z,45.74
2022-11-08T03:25:44.206Z,45.74
2022-11-08T03:26:44.220Z,45.78
2022-11-08T03:27:44.220Z,45.8
2022-11-08T03:28:44.220Z,45.89
2022-11-08T03:29:44.220Z,45.8
2022-11-08T03:30:44.221Z,45.76
2022-11-08T03:31:44.221Z,45.55
2022-11-08T03:32:44.220Z,45.61
2022-11-08T03:33:44.207Z,45.61
2022-11-08T03:34:44.222Z,45.74
2022-11-08T03:35:44.222Z,45.4
2022-11-08T03:36:44.207Z,45.61
2022-11-08T03:37:44.207Z,45.53
2022-11-08T03:38:44.222Z,45.66
2022-11-08T03:39:44.223Z,45.59
2022-11-08T03:40:44.208Z,45.44
2022-11-08T03:41:44.208Z,45.56
2022-11-08T03:42:44.223Z,45.44
2022-11-08T03:43:44.246Z,45.52
2022-11-08T03:44:53.466Z,45.46
2022-11-08T03:45:44.223Z,45.44
2022-11-08T03:46:44.223Z,45.57
2022-11-08T03:47:44.223Z,45.58
2022-11-08T03:48:44.209Z,45.62
2022-11-08T03:49:44.224Z,45.64
2022-11-08T03:50:44.224Z,45.74
2022-11-08T03:51:44.223Z,45.6
2022-11-08T03:52:44.209Z,45.7
2022-11-08T03:53:44.224Z,45.94
2022-11-08T03:54:44.224Z,45.72
2022-11-08T03:55:44.223Z,45.75
2022-11-08T03:56:44.211Z,45.68
2022-11-08T03:57:44.224Z,45.76
2022-11-08T03:58:44.226Z,45.59
2022-11-08T03:59:44.225Z,45.75
2022-11-08T04:00:44.210Z,45.62
2022-11-08T04:01:44.225Z,45.65
2022-11-08T04:02:44.225Z,45.87
2022-11-08T04:03:44.211Z,45.65
2022-11-08T04:04:44.211Z,45.66
2022-11-08T04:05:44.226Z,45.61
2022-11-08T04:06:44.226Z,45.46
2022-11-08T04:07:44.211Z,45.63
2022-11-08T04:08:44.226Z,45.23
2022-11-08T04:09:44.226Z,45.77
2022-11-08T04:10:44.226Z,45.73
2022-11-08T04:11:44.212Z,45.59
2022-11-08T04:12:44.227Z,45.73
2022-11-08T04:13:44.227Z,45.71
2022-11-08T04:14:44.226Z,45.3
2022-11-08T04:15:44.212Z,45.49
2022-11-08T04:16:44.227Z,45.31
2022-11-08T04:17:44.228Z,45.29
2022-11-08T04:18:44.226Z,45.56
2022-11-08T04:19:44.213Z,45.38
2022-11-08T04:20:44.228Z,45.65
2022-11-08T04:21:44.228Z,45.15
2022-11-08T04:22:44.213Z,45.22
2022-11-08T04:23:44.213Z,45.29
2022-11-08T04:24:44.228Z,45.38
2022-11-08T04:25:44.229Z,45.44
2022-11-08T04:26:44.214Z,45.37
2022-11-08T04:27:44.214Z,45.38
2022-11-08T04:28:44.228Z,45.44
2022-11-08T04:29:44.229Z,45.41
2022-11-08T04:30:44.214Z,45.44
2022-11-08T04:31:44.229Z,45.6
2022-11-08T04:32:44.229Z,45.36
2022-11-08T04:33:44.229Z,45.72
2022-11-08T04:34:44.215Z,45.6
2022-11-08T04:35:44.230Z,45.54
2022-11-08T04:36:44.230Z,45.71
2022-11-08T04:37:44.230Z,45.69
2022-11-08T04:38:44.216Z,45.57
2022-11-08T04:39:44.230Z,45.46
2022-11-08T04:40:44.230Z,45.54
2022-11-08T04:41:44.230Z,45.66
2022-11-08T04:42:44.216Z,45.54
2022-11-08T04:43:44.231Z,45.59
2022-11-08T04:44:44.232Z,45.8
2022-11-08T04:45:44.216Z,45.65
2022-11-08T04:46:44.216Z,45.62
2022-11-08T04:47:44.231Z,45.54
2022-11-08T04:48:44.232Z,45.41
2022-11-08T04:49:44.217Z,45.52
2022-11-08T04:50:44.231Z,45.33
2022-11-08T04:51:44.232Z,45.22
2022-11-08T04:52:44.232Z,45.35
2022-11-08T04:53:44.217Z,45.38
2022-11-08T04:54:44.232Z,45.41
2022-11-08T04:55:44.232Z,45.42
2022-11-08T04:56:44.231Z,45.27
2022-11-08T04:57:44.218Z,45.33
2022-11-08T04:58:44.233Z,45.17
2022-11-08T04:59:44.234Z,45.44
2022-11-08T05:00:44.232Z,45.47
2022-11-08T05:01:44.218Z,45.51
2022-11-08T05:02:44.232Z,45.69
2022-11-08T05:03:44.233Z,45.41
2022-11-08T05:04:44.244Z,45.59
2022-11-08T05:05:44.220Z,45.6
2022-11-08T05:06:44.234Z,45.51
2022-11-08T05:07:44.234Z,45.44
2022-11-08T05:08:44.219Z,45.68
2022-11-08T05:09:44.219Z,45.52
2022-11-08T05:10:44.234Z,45.6
2022-11-08T05:11:44.234Z,45.69
2022-11-08T05:12:44.219Z,45.66
2022-11-08T05:13:44.233Z,45.84
2022-11-08T05:14:44.234Z,45.74
2022-11-08T05:15:44.235Z,45.46
2022-11-08T05:16:44.220Z,45.62
2022-11-08T05:17:44.234Z,45.44
2022-11-08T05:18:44.235Z,45.71
2022-11-08T05:19:44.234Z,45.64
2022-11-08T05:20:44.220Z,45.57
2022-11-08T05:21:44.234Z,45.45
2022-11-08T05:22:53.494Z,45.49
2022-11-08T05:23:44.235Z,45.53
2022-11-08T05:24:44.222Z,45.43
2022-11-08T05:25:44.236Z,45.38
2022-11-08T05:26:44.236Z,45.64
2022-11-08T05:27:44.235Z,45.41
2022-11-08T05:28:44.222Z,45.35
2022-11-08T05:29:44.235Z,45.23
2022-11-08T05:30:44.237Z,45.33
2022-11-08T05:31:44.222Z,45.54
2022-11-08T05:32:44.222Z,45.23
2022-11-08T05:33:44.236Z,45.12
2022-11-08T05:34:44.237Z,45.09
2022-11-08T05:35:44.222Z,45.04
2022-11-08T05:36:44.237Z,44.93
2022-11-08T05:37:44.237Z,44.91
2022-11-08T05:38:44.236Z,44.8
2022-11-08T05:39:44.223Z,44.93
2022-11-08T05:40:44.238Z,44.83
2022-11-08T05:41:44.237Z,44.68
2022-11-08T05:42:44.237Z,44.92
2022-11-08T05:43:44.223Z,44.82
2022-11-08T05:44:44.238Z,44.8
2022-11-08T05:45:44.238Z,44.75
2022-11-08T05:46:44.238Z,44.71
2022-11-08T05:47:44.224Z,44.8
2022-11-08T05:48:44.239Z,44.65
2022-11-08T05:49:44.239Z,44.87
2022-11-08T05:50:44.224Z,44.76
2022-11-08T05:51:44.224Z,44.87
2022-11-08T05:52:44.239Z,44.92
2022-11-08T05:53:44.240Z,45.12
2022-11-08T05:54:44.225Z,44.88
2022-11-08T05:55:44.225Z,44.9
2022-11-08T05:56:44.240Z,44.93
2022-11-08T05:57:44.240Z,44.93
2022-11-08T05:58:44.225Z,44.97
2022-11-08T05:59:44.240Z,45.16
2022-11-08T06:00:44.240Z,45
2022-11-08T06:01:44.239Z,44.99
2022-11-08T06:02:44.226Z,45.11
2022-11-08T06:03:44.240Z,45.1
2022-11-08T06:04:44.240Z,44.99
2022-11-08T06:05:44.241Z,45.17
2022-11-08T06:06:44.226Z,45.13
2022-11-08T06:07:44.240Z,45.11
2022-11-08T06:08:44.242Z,45.04
2022-11-08T06:09:44.240Z,44.84
2022-11-08T06:10:44.228Z,45.06
2022-11-08T06:11:44.240Z,44.86
2022-11-08T06:12:44.242Z,45.18
2022-11-08T06:13:44.227Z,45.03
2022-11-08T06:14:44.227Z,44.94
2022-11-08T06:15:44.242Z,44.84
2022-11-08T06:16:44.242Z,45.09
2022-11-08T06:17:44.227Z,45.04
2022-11-08T06:18:44.228Z,45.11
2022-11-08T06:19:44.242Z,44.99
2022-11-08T06:20:44.265Z,44.85
2022-11-08T06:21:44.228Z,45.02
2022-11-08T06:22:44.243Z,44.98
2022-11-08T06:23:44.242Z,44.97
2022-11-08T06:24:44.243Z,45.21
2022-11-08T06:25:44.228Z,45.04
2022-11-08T06:26:44.243Z,44.94
2022-11-08T06:27:44.243Z,45.17
2022-11-08T06:28:44.242Z,45.35
2022-11-08T06:29:44.229Z,45.23
2022-11-08T06:30:44.243Z,45.05
2022-11-08T06:31:44.245Z,45.16
2022-11-08T06:32:44.244Z,45.35
2022-11-08T06:33:44.229Z,45.22
2022-11-08T06:34:44.308Z,45.23
2022-11-08T06:35:44.245Z,45.25
2022-11-08T06:36:44.230Z,45.17
2022-11-08T06:37:44.230Z,45.12
2022-11-08T06:38:44.245Z,45.17
2022-11-08T06:39:44.246Z,45.17
2022-11-08T06:40:44.230Z,44.85
2022-11-08T06:41:44.309Z,44.82
2022-11-08T06:42:44.245Z,44.78
2022-11-08T06:43:44.245Z,44.62
2022-11-08T06:44:44.231Z,44.6
2022-11-08T06:45:44.245Z,44.62
2022-11-08T06:46:44.244Z,44.59
2022-11-08T06:47:44.246Z,44.39
2022-11-08T06:48:44.231Z,44.46
2022-11-08T06:49:44.246Z,44.58
2022-11-08T06:50:44.247Z,44.55
2022-11-08T06:51:44.246Z,44.57
2022-11-08T06:52:44.232Z,44.58
2022-11-08T06:53:44.246Z,44.52
2022-11-08T06:54:44.246Z,44.43
2022-11-08T06:55:44.247Z,44.7
2022-11-08T06:56:44.232Z,44.5
2022-11-08T06:57:44.247Z,44.45
2022-11-08T06:58:44.248Z,44.43
2022-11-08T06:59:49.873Z,44.41
2022-11-08T07:00:53.491Z,44.41
2022-11-08T07:01:44.247Z,44.44
2022-11-08T07:02:44.247Z,44.21
2022-11-08T07:03:44.233Z,44.32
2022-11-08T07:04:44.234Z,44.28
2022-11-08T07:05:44.248Z,44.6
2022-11-08T07:06:44.248Z,44.25
2022-11-08T07:07:44.233Z,44.21
2022-11-08T07:08:44.247Z,43.96
2022-11-08T07:09:44.248Z,44.3
2022-11-08T07:10:44.247Z,44.38
2022-11-08T07:11:44.234Z,44.12
2022-11-08T07:12:44.249Z,43.89
2022-11-08T07:13:44.249Z,43.82
2022-11-08T07:14:44.249Z,43.92
2022-11-08T07:15:44.234Z,43.64
2022-11-08T07:16:44.249Z,43.83
2022-11-08T07:17:44.249Z,43.57
2022-11-08T07:18:44.250Z,43.4
2022-11-08T07:19:44.235Z,43.33
2022-11-08T07:20:44.250Z,43.29
2022-11-08T07:21:44.250Z,43.41
2022-11-08T07:22:44.235Z,43.4
2022-11-08T07:23:44.235Z,43.21
2022-11-08T07:24:44.250Z,43.17
2022-11-08T07:25:44.251Z,43.1
2022-11-08T07:26:44.236Z,43.2
2022-11-08T07:27:44.250Z,43.2
2022-11-08T07:28:44.251Z,43.12
2022-11-08T07:29:44.250Z,43.15
2022-11-08T07:30:44.236Z,43.18
2022-11-08T07:31:44.251Z,43.3
2022-11-08T07:32:44.250Z,43.15
2022-11-08T07:33:44.251Z,43.23
2022-11-08T07:34:44.237Z,43.11
2022-11-08T07:35:44.252Z,42.88
2022-11-08T07:36:44.252Z,42.85
2022-11-08T07:37:44.252Z,42.92
2022-11-08T07:38:44.238Z,42.89
2022-11-08T07:39:44.316Z,42.65
2022-11-08T07:40:44.253Z,42.82
2022-11-08T07:41:44.238Z,42.81
2022-11-08T07:42:44.238Z,42.76
2022-11-08T07:43:44.253Z,42.62
2022-11-08T07:44:44.254Z,42.58
2022-11-08T07:45:44.238Z,42.67
2022-11-08T07:46:44.301Z,42.65
2022-11-08T07:47:44.253Z,42.53
2022-11-08T07:48:44.253Z,42.59
2022-11-08T07:49:44.239Z,42.52
2022-11-08T07:50:44.254Z,42.41
2022-11-08T07:51:44.253Z,42.43
2022-11-08T07:52:44.254Z,42.28
2022-11-08T07:53:44.240Z,42.16
2022-11-08T07:54:44.254Z,42.19
2022-11-08T07:55:44.256Z,41.78
2022-11-08T07:56:44.255Z,41.78
2022-11-08T07:57:44.241Z,41.73
2022-11-08T07:58:44.254Z,41.58
2022-11-08T07:59:47.647Z,41.75
2022-11-08T08:00:44.254Z,41.59
2022-11-08T08:01:44.241Z,41.65
2022-11-08T08:02:44.255Z,41.65
2022-11-08T08:03:44.257Z,41.75
2022-11-08T08:04:44.241Z,41.64
2022-11-08T08:05:44.243Z,41.44
2022-11-08T08:06:44.257Z,41.4
2022-11-08T08:07:44.257Z,41.3
2022-11-08T08:08:44.242Z,41.12
2022-11-08T08:09:44.243Z,40.98
2022-11-08T08:10:44.257Z,40.84
2022-11-08T08:11:44.257Z,40.94
2022-11-08T08:12:44.243Z,40.84
2022-11-08T08:13:44.257Z,41.04
2022-11-08T08:14:44.258Z,40.68
2022-11-08T08:15:44.258Z,40.63
2022-11-08T08:16:44.244Z,40.66
2022-11-08T08:17:44.257Z,40.51
2022-11-08T08:18:44.309Z,40.52
2022-11-08T08:19:44.258Z,40.26
2022-11-08T08:20:44.244Z,40.3
2022-11-08T08:21:44.259Z,40.46
2022-11-08T08:22:44.259Z,40.43
2022-11-08T08:23:44.260Z,40.32
2022-11-08T08:24:44.245Z,40.28
2022-11-08T08:25:44.308Z,40.11
2022-11-08T08:26:44.261Z,40.04
2022-11-08T08:27:44.246Z,39.95
2022-11-08T08:28:44.246Z,39.81
2022-11-08T08:29:44.261Z,39.68
2022-11-08T08:30:44.262Z,39.61
2022-11-08T08:31:44.246Z,39.29
2022-11-08T08:32:44.262Z,39.22
2022-11-08T08:33:44.262Z,38.94
2022-11-08T08:34:44.262Z,38.9
2022-11-08T08:35:44.247Z,38.9
2022-11-08T08:36:44.262Z,38.95
2022-11-08T08:37:44.262Z,38.69
2022-11-08T08:38:44.263Z,38.53
2022-11-08T08:39:53.507Z,38.5
2022-11-08T08:40:44.263Z,38.55
2022-11-08T08:41:44.264Z,38.39
2022-11-08T08:42:44.263Z,38.45
2022-11-08T08:43:44.249Z,38.41
2022-11-08T08:44:44.263Z,38.32
2022-11-08T08:45:44.266Z,38.07
2022-11-08T08:46:44.265Z,38.22
2022-11-08T08:47:44.251Z,38.09
2022-11-08T08:48:44.264Z,38.18
2022-11-08T08:49:44.266Z,38.18
2022-11-08T08:50:44.251Z,38.11
2022-11-08T08:51:44.251Z,38.02
2022-11-08T08:52:44.266Z,37.72
2022-11-08T08:53:44.268Z,38.04
2022-11-08T08:54:44.252Z,37.73
2022-11-08T08:55:44.266Z,37.55
2022-11-08T08:56:44.267Z,37.65
2022-11-08T08:57:44.268Z,37.61
2022-11-08T08:58:44.253Z,37.51
2022-11-08T08:59:52.501Z,37.42
2022-11-08T09:00:44.267Z,37.63
2022-11-08T09:01:44.268Z,37.47
2022-11-08T09:02:44.254Z,37.68
2022-11-08T09:03:44.269Z,37.84
2022-11-08T09:04:44.270Z,37.71
2022-11-08T09:05:44.269Z,37.78
2022-11-08T09:06:44.256Z,37.47
2022-11-08T09:07:44.271Z,37.23
2022-11-08T09:08:44.271Z,37.17
2022-11-08T09:09:52.505Z,37.1
2022-11-08T09:10:44.257Z,37
2022-11-08T09:11:44.271Z,36.88
2022-11-08T09:12:44.273Z,36.8
2022-11-08T09:13:44.258Z,36.72
2022-11-08T09:14:44.258Z,36.75
2022-11-08T09:15:44.273Z,36.93
2022-11-08T09:16:44.273Z,36.93
2022-11-08T09:17:44.259Z,36.88
2022-11-08T09:18:44.260Z,36.86
2022-11-08T09:19:44.274Z,36.65
2022-11-08T09:20:44.275Z,36.78
2022-11-08T09:21:44.260Z,36.75
2022-11-08T09:22:44.274Z,36.81
2022-11-08T09:23:44.275Z,36.98
2022-11-08T09:24:44.276Z,36.92
2022-11-08T09:25:44.261Z,37.03
2022-11-08T09:26:44.276Z,36.96
2022-11-08T09:28:44.277Z,36.82
2022-11-08T09:29:44.263Z,36.87
2022-11-08T09:30:44.277Z,36.97
2022-11-08T09:31:44.278Z,36.98
2022-11-08T09:32:44.278Z,36.88
2022-11-08T09:33:44.264Z,37
2022-11-08T09:34:44.279Z,37.08
2022-11-08T09:35:44.280Z,37.1
2022-11-08T09:36:44.265Z,36.94
2022-11-08T09:37:44.266Z,36.87
2022-11-08T09:38:44.281Z,36.89
2022-11-08T09:39:44.281Z,36.83
2022-11-08T09:40:44.267Z,36.91
2022-11-08T09:41:44.281Z,37.07
2022-11-08T09:42:44.282Z,36.95
2022-11-08T09:43:44.282Z,36.9
2022-11-08T09:44:44.268Z,36.94
2022-11-08T09:45:44.283Z,37.08
2022-11-08T09:46:44.283Z,37.06
2022-11-08T09:47:44.283Z,36.74
2022-11-08T09:48:44.270Z,36.9
2022-11-08T09:49:44.284Z,37.12
2022-11-08T09:50:44.286Z,37.19
2022-11-08T09:51:44.285Z,37.41
2022-11-08T09:52:44.271Z,37.56
2022-11-08T09:53:44.286Z,37.72
2022-11-08T09:54:44.287Z,37.91
2022-11-08T09:55:44.272Z,38.04
2022-11-08T09:56:44.273Z,38.29
2022-11-08T09:57:44.288Z,38.54
2022-11-08T09:58:44.288Z,38.74
2022-11-08T09:59:44.273Z,38.93
2022-11-08T10:00:44.353Z,39.04
2022-11-08T10:01:44.289Z,39.38
2022-11-08T10:02:44.288Z,39.25
2022-11-08T10:03:44.275Z,39.35
2022-11-08T10:04:44.289Z,39.37
2022-11-08T10:05:44.290Z,39.33
2022-11-08T10:06:44.291Z,39.4
2022-11-08T10:07:44.276Z,39.4
2022-11-08T10:08:44.291Z,39.47
2022-11-08T10:09:44.292Z,39.66
2022-11-08T10:10:44.292Z,39.85
2022-11-08T10:11:44.278Z,40.05
2022-11-08T10:13:44.293Z,40.43
2022-11-08T10:15:44.279Z,40.69
2022-11-08T10:16:44.341Z,40.85
2022-11-08T10:17:53.554Z,41.1
2022-11-08T10:18:44.280Z,41.1
2022-11-08T10:19:44.282Z,41.18
2022-11-08T10:20:52.529Z,41.25
2022-11-08T10:21:53.556Z,41.27
2022-11-08T10:22:53.556Z,41.21
2022-11-08T10:23:44.282Z,41.15
2022-11-08T10:24:44.296Z,40.81
2022-11-08T10:25:44.299Z,40.82
2022-11-08T10:26:44.297Z,40.7
2022-11-08T10:27:44.284Z,40.69
2022-11-08T10:28:44.298Z,40.95
2022-11-08T10:29:44.299Z,40.78
2022-11-08T10:30:44.285Z,40.78
2022-11-08T10:31:44.286Z,40.69
2022-11-08T10:32:44.300Z,40.63
2022-11-08T10:33:44.300Z,40.69
2022-11-08T10:34:44.286Z,40.66
2022-11-08T10:35:44.324Z,40.67
2022-11-08T10:36:44.302Z,40.68
2022-11-08T10:37:44.302Z,40.75
2022-11-08T10:38:44.288Z,40.83
2022-11-08T10:39:44.304Z,40.68
2022-11-08T10:40:44.303Z,40.86
2022-11-08T10:41:44.303Z,40.76
2022-11-08T10:42:44.289Z,40.7
2022-11-08T10:43:44.304Z,40.67
2022-11-08T10:44:44.305Z,40.45
2022-11-08T10:45:44.305Z,40.39
2022-11-08T10:46:44.291Z,40.26
2022-11-08T10:47:44.305Z,40.31
2022-11-08T10:48:44.306Z,40.14
2022-11-08T10:49:44.306Z,40.1
2022-11-08T10:50:44.292Z,40.08
2022-11-08T10:51:44.307Z,39.93
2022-11-08T10:52:44.308Z,40.01
2022-11-08T10:53:44.293Z,40.01
2022-11-08T10:54:44.294Z,39.94
2022-11-08T10:55:44.309Z,39.88
2022-11-08T10:56:44.309Z,39.78
2022-11-08T10:57:44.295Z,39.79
2022-11-08T10:58:44.309Z,39.84
2022-11-08T10:59:44.310Z,39.81
2022-11-08T11:00:44.310Z,39.57
2022-11-08T11:01:44.296Z,39.59
2022-11-08T11:02:44.310Z,39.65
2022-11-08T11:03:44.311Z,39.45
2022-11-08T11:04:44.312Z,39.52
2022-11-08T11:05:44.298Z,39.42
2022-11-08T11:06:44.313Z,39.23
2022-11-08T11:07:44.313Z,39.34
2022-11-08T11:08:44.314Z,39.27
2022-11-08T11:09:44.299Z,39.21
2022-11-08T11:10:44.314Z,39.37
2022-11-08T11:11:44.316Z,39.25
2022-11-08T11:12:44.301Z,39.37
2022-11-08T11:13:44.301Z,39.25
2022-11-08T11:14:44.316Z,39.2
2022-11-08T11:16:44.302Z,39.23
2022-11-08T11:17:44.303Z,39.17
2022-11-08T11:18:44.318Z,39.23
2022-11-08T11:19:44.318Z,39.11
2022-11-08T11:20:44.304Z,39.16
2022-11-08T11:21:44.358Z,39.14
2022-11-08T11:22:44.318Z,39.47
2022-11-08T11:23:44.319Z,39.35
2022-11-08T11:24:44.305Z,39.54
2022-11-08T11:25:44.320Z,39.76
2022-11-08T11:26:44.321Z,39.87
2022-11-08T11:27:44.321Z,39.85
2022-11-08T11:28:44.307Z,39.86
2022-11-08T11:29:44.321Z,39.84
2022-11-08T11:30:44.322Z,40.02
2022-11-08T11:31:44.323Z,40.09
2022-11-08T11:32:44.309Z,40.13
2022-11-08T11:33:44.324Z,40.14
2022-11-08T11:34:44.325Z,40.17
2022-11-08T11:35:44.325Z,40.33
2022-11-08T11:36:44.311Z,40.34
2022-11-08T11:37:44.325Z,40.32
2022-11-08T11:38:44.327Z,40.4
2022-11-08T11:39:44.311Z,40.43
2022-11-08T11:40:44.312Z,40.34
2022-11-08T11:41:44.327Z,40.28
2022-11-08T11:42:44.328Z,40.45
2022-11-08T11:43:44.313Z,40.27
2022-11-08T11:44:44.327Z,40.29
2022-11-08T11:45:44.329Z,40.12
2022-11-08T11:46:44.329Z,39.95
2022-11-08T11:47:44.315Z,39.9
2022-11-08T11:48:44.330Z,39.97
2022-11-08T11:49:44.329Z,39.87
2022-11-08T11:50:44.330Z,39.9
2022-11-08T11:51:44.316Z,39.88
2022-11-08T11:52:44.331Z,39.97
2022-11-08T11:53:44.333Z,39.9
2022-11-08T11:54:53.589Z,39.95
2022-11-08T11:55:44.319Z,39.99
2022-11-08T11:56:44.332Z,40.23
2022-11-08T11:57:44.333Z,40.24
2022-11-08T11:58:44.319Z,40.32
2022-11-08T11:59:44.320Z,40.29
2022-11-08T12:00:44.335Z,40.38
2022-11-08T12:01:44.336Z,40.34
2022-11-08T12:02:44.321Z,40.29
2022-11-08T12:03:44.321Z,40.33
2022-11-08T12:04:44.336Z,40.39
2022-11-08T12:05:44.360Z,40.25
2022-11-08T12:06:44.322Z,40.3
2022-11-08T12:07:44.336Z,40.45
2022-11-08T12:08:44.338Z,40.49
2022-11-08T12:09:44.338Z,40.51
2022-11-08T12:10:44.324Z,40.69
2022-11-08T12:11:44.338Z,40.87
2022-11-08T12:12:44.339Z,41.12
2022-11-08T12:13:44.340Z,40.84
2022-11-08T12:14:44.327Z,40.73
2022-11-08T12:15:44.340Z,40.72
2022-11-08T12:16:44.341Z,40.67
2022-11-08T12:17:44.340Z,40.65
2022-11-08T12:18:44.327Z,40.67
2022-11-08T12:19:44.342Z,40.8
2022-11-08T12:20:44.343Z,40.74
2022-11-08T12:21:44.343Z,40.91
2022-11-08T12:22:44.329Z,41.02
2022-11-08T12:23:44.344Z,41.18
2022-11-08T12:24:44.344Z,41.4
2022-11-08T12:25:44.330Z,41.47
2022-11-08T12:26:44.331Z,41.58
2022-11-08T12:27:44.346Z,41.77
2022-11-08T12:28:44.347Z,41.7
2022-11-08T12:29:44.332Z,41.96
2022-11-08T12:30:44.347Z,41.98
2022-11-08T12:31:44.347Z,41.93
2022-11-08T12:32:44.348Z,40.93
2022-11-08T12:33:44.333Z,40.01
2022-11-08T12:34:44.348Z,39.03
2022-11-08T12:35:44.349Z,37.86
2022-11-08T12:36:44.348Z,36.29
2022-11-08T12:37:44.335Z,34.93
2022-11-08T12:38:44.349Z,33.85
2022-11-08T12:39:44.352Z,32.79
2022-11-08T12:40:44.350Z,31.87
2022-11-08T12:41:44.337Z,31.41
2022-11-08T12:42:44.352Z,31.06
2022-11-08T12:43:44.354Z,30.67
2022-11-08T12:44:44.339Z,30.34
2022-11-08T12:45:44.341Z,29.91
2022-11-08T12:46:44.355Z,29.73
2022-11-08T12:47:44.355Z,29.47
2022-11-08T12:48:44.341Z,29.44
2022-11-08T12:49:44.343Z,29.72
2022-11-08T12:50:44.357Z,29.96
2022-11-08T12:51:44.357Z,30.37
2022-11-08T12:52:44.343Z,30.92
2022-11-08T12:53:44.359Z,31.15
2022-11-08T12:54:44.358Z,31.97
2022-11-08T12:55:44.359Z,32.39
2022-11-08T12:56:44.346Z,33.09
2022-11-08T12:57:44.360Z,34.03
2022-11-08T12:58:44.363Z,34.76
2022-11-08T12:59:44.362Z,35.21
2022-11-08T13:00:44.349Z,35.74